Pagrindinis puslapis
METAR-TAF:

METAR-TAF

Oro uostai :

Jinotega, Nikaragva

platuma: 13-05N, ilguma: 085-59W, Aukštis: 985 m

Dabartinis oras

Ataskaita buvo paskelbta 1 valandą ir 23 minutes, ne 22:00 UTC
Vėjas 16 kt iš Rytų
Temperatūra 25°C
Drėgmė 50%
Slėgis 1014 hPa
Matomumas 10 km arba daugiau
Mažai debesys ne aukštis 2000 ft

METAR: MNJG 212200Z 09016KT 9999 FEW020 25/14 Q1014

Laikas: 17:23 (23:23 UTC)


TAF: trūkstamas

Orai ataskaitas ir orų prognozės (METAR, TAF).

turimą stotys yra geltonos ir raudonos taškus žemėlapyje.

Perkelti pele per norėdami pamatyti stoties vardą.

Tada spustelėkite, norėdami matyti oro stebėjimo ir prognozės.

Norėdami pakeisti žemėlapį: spustelėkite ant žalios mygtukų su juodo kryžiaus žemyn,; žalią mygtuką su brūkšneliu, jei norite nutolinti; arba žalių rodyklių gretimoms žemėlapius.


METAR-TAF: